createdAt,value
2019-03-05T00:02:25.404Z,7.60
2019-03-05T00:08:27.582Z,7.70
2019-03-05T00:14:29.941Z,7.80
2019-03-05T00:20:32.147Z,8.00
2019-03-05T00:26:35.032Z,8.00
2019-03-05T00:32:37.308Z,8.00
2019-03-05T00:39:11.854Z,8.10
2019-03-05T00:45:55.916Z,8.10
2019-03-05T00:52:21.315Z,8.10
2019-03-05T00:58:40.541Z,8.00
2019-03-05T01:05:09.608Z,7.90
2019-03-05T01:11:11.988Z,7.70
2019-03-05T01:17:15.331Z,7.50
2019-03-05T01:23:17.605Z,7.40
2019-03-05T01:29:20.931Z,7.40
2019-03-05T01:35:25.231Z,7.30
2019-03-05T01:41:27.954Z,7.20
2019-03-05T01:47:32.481Z,7.10
2019-03-05T01:53:34.688Z,7.20
2019-03-05T01:59:36.891Z,7.30
2019-03-05T02:05:39.166Z,7.30
2019-03-05T02:11:41.659Z,7.40
2019-03-05T02:17:43.879Z,7.30
2019-03-05T02:24:19.627Z,7.30
2019-03-05T02:30:53.799Z,7.40
2019-03-05T02:37:30.487Z,7.30
2019-03-05T02:44:04.944Z,7.30
2019-03-05T02:51:00.322Z,7.10
2019-03-05T02:57:09.244Z,7.00
2019-03-05T03:03:25.555Z,7.00
2019-03-05T03:09:56.737Z,7.00
2019-03-05T03:15:58.908Z,7.00
2019-03-05T03:22:01.271Z,6.90
2019-03-05T03:28:03.662Z,6.70
2019-03-05T03:34:05.875Z,6.70
2019-03-05T03:40:11.589Z,6.70
2019-03-05T03:46:14.597Z,6.70
2019-03-05T03:52:19.677Z,6.60
2019-03-05T03:58:21.875Z,6.50
2019-03-05T04:04:25.141Z,6.40
2019-03-05T04:10:27.459Z,6.30
2019-03-05T04:16:29.797Z,6.20
2019-03-05T04:22:32.047Z,6.20
2019-03-05T04:28:34.485Z,6.10
2019-03-05T04:34:36.942Z,6.00
2019-03-05T04:40:39.142Z,6.00
2019-03-05T04:46:44.268Z,6.10
2019-03-05T04:52:48.820Z,6.10
2019-03-05T04:58:52.172Z,6.10
2019-03-05T05:04:55.620Z,6.20
2019-03-05T05:10:57.806Z,6.30
2019-03-05T05:17:02.059Z,6.50
2019-03-05T05:23:07.479Z,6.60
2019-03-05T05:29:11.925Z,6.60
2019-03-05T05:35:14.225Z,6.60
2019-03-05T05:41:16.436Z,6.70
2019-03-05T05:47:18.601Z,6.90
2019-03-05T05:53:21.023Z,6.90
2019-03-05T05:59:23.214Z,7.00
2019-03-05T06:05:31.267Z,7.00
2019-03-05T06:11:33.507Z,7.10
2019-03-05T06:17:36.676Z,7.20
2019-03-05T06:23:39.903Z,7.20
2019-03-05T06:29:42.216Z,7.30
2019-03-05T06:35:44.505Z,7.40
2019-03-05T06:41:46.720Z,7.60
2019-03-05T06:47:48.979Z,7.80
2019-03-05T06:53:53.007Z,8.00
2019-03-05T06:59:55.364Z,7.90
2019-03-05T07:06:35.176Z,8.10
2019-03-05T07:13:07.894Z,8.40
2019-03-05T07:19:25.467Z,8.40
2019-03-05T07:25:33.736Z,8.50
2019-03-05T07:31:36.087Z,8.70
2019-03-05T07:37:38.234Z,10.70
2019-03-05T07:43:40.479Z,12.60
2019-03-05T07:49:44.372Z,12.30
2019-03-05T07:55:46.863Z,12.20
2019-03-05T08:01:49.132Z,12.00
2019-03-05T08:07:51.935Z,11.70
2019-03-05T08:14:33.361Z,11.40
2019-03-05T08:20:35.767Z,11.40
2019-03-05T08:26:38.033Z,10.80
2019-03-05T08:32:40.403Z,10.40
2019-03-05T08:38:42.649Z,10.30
2019-03-05T08:44:50.339Z,10.30
2019-03-05T08:50:49.015Z,10.30
2019-03-05T08:56:51.436Z,10.20
2019-03-05T09:02:53.779Z,10.40
2019-03-05T09:08:56.155Z,10.30
2019-03-05T09:14:58.460Z,10.50
2019-03-05T09:21:01.127Z,10.80
2019-03-05T09:27:03.531Z,10.80
2019-03-05T09:33:05.992Z,10.90
2019-03-05T09:39:11.551Z,10.90
2019-03-05T09:45:14.906Z,11.30
2019-03-05T09:51:17.064Z,11.70
2019-03-05T09:57:19.704Z,12.10
2019-03-05T10:03:22.096Z,12.30
2019-03-05T10:09:25.989Z,12.30
2019-03-05T10:15:28.593Z,12.20
2019-03-05T10:21:30.833Z,12.70
2019-03-05T10:27:33.477Z,13.00
2019-03-05T10:33:35.695Z,12.50
2019-03-05T10:39:37.985Z,12.30
2019-03-05T10:45:43.009Z,12.40
2019-03-05T10:51:45.539Z,12.70
2019-03-05T10:57:47.942Z,13.10
2019-03-05T11:03:50.495Z,13.40
2019-03-05T11:09:53.384Z,13.70
2019-03-05T11:15:56.478Z,13.90
2019-03-05T11:21:58.727Z,13.80
2019-03-05T11:28:00.915Z,13.80
2019-03-05T11:34:03.201Z,13.40
2019-03-05T11:40:07.934Z,12.70
2019-03-05T11:46:14.585Z,12.30
2019-03-05T11:52:18.052Z,12.20
2019-03-05T11:58:20.543Z,12.10
2019-03-05T12:04:23.935Z,12.80
2019-03-05T12:10:26.220Z,13.20
2019-03-05T12:16:28.634Z,13.60
2019-03-05T12:22:31.526Z,13.50
2019-03-05T12:28:34.767Z,13.40
2019-03-05T12:34:36.993Z,13.10
2019-03-05T12:40:42.109Z,13.30
2019-03-05T12:46:44.520Z,13.40
2019-03-05T12:52:47.077Z,13.00
2019-03-05T12:58:49.471Z,12.90
2019-03-05T13:04:52.800Z,13.00
2019-03-05T13:10:55.912Z,13.20
2019-03-05T13:16:58.272Z,13.20
2019-03-05T13:23:00.680Z,13.30
2019-03-05T13:29:03.151Z,13.80
2019-03-05T13:35:07.896Z,13.80
2019-03-05T13:41:12.201Z,13.90
2019-03-05T13:47:15.982Z,13.70
2019-03-05T13:53:31.445Z,13.70
2019-03-05T13:59:44.557Z,13.40
2019-03-05T14:06:12.759Z,13.00
2019-03-05T14:12:14.986Z,12.80
2019-03-05T14:18:18.371Z,12.70
2019-03-05T14:24:20.757Z,12.60
2019-03-05T14:30:23.176Z,12.60
2019-03-05T14:36:25.714Z,12.50
2019-03-05T14:42:28.611Z,12.40
2019-03-05T14:48:30.999Z,12.30
2019-03-05T14:54:34.526Z,12.20
2019-03-05T15:00:38.019Z,12.20
2019-03-05T15:06:41.514Z,12.20
2019-03-05T15:12:43.739Z,12.20
2019-03-05T15:18:46.011Z,12.00
2019-03-05T15:24:48.698Z,11.70
2019-03-05T15:30:50.971Z,11.50
2019-03-05T15:36:54.414Z,11.40
2019-03-05T15:42:56.908Z,11.20
2019-03-05T15:48:59.283Z,11.10
2019-03-05T15:55:01.614Z,10.80
2019-03-05T16:01:04.767Z,10.70
2019-03-05T16:07:10.951Z,10.40
2019-03-05T16:13:15.385Z,10.30
2019-03-05T16:19:17.989Z,10.10
2019-03-05T16:25:22.214Z,9.90
2019-03-05T16:31:26.537Z,9.90
2019-03-05T16:37:34.137Z,10.00
2019-03-05T16:43:39.471Z,10.00
2019-03-05T16:49:52.877Z,10.00
2019-03-05T16:56:09.640Z,10.10
2019-03-05T17:02:14.001Z,10.30
2019-03-05T17:08:30.085Z,10.40
2019-03-05T17:14:32.294Z,10.40
2019-03-05T17:20:34.628Z,10.10
2019-03-05T17:26:36.967Z,9.90
2019-03-05T17:32:39.258Z,9.60
2019-03-05T17:38:41.479Z,9.60
2019-03-05T17:44:44.084Z,9.50
2019-03-05T17:50:46.250Z,9.40
2019-03-05T17:56:48.520Z,9.30
2019-03-05T18:02:50.787Z,9.30
2019-03-05T18:08:53.020Z,9.20
2019-03-05T18:14:55.176Z,9.10
2019-03-05T18:20:58.478Z,8.90
2019-03-05T18:27:01.136Z,8.80
2019-03-05T18:33:03.491Z,8.70
2019-03-05T18:39:05.775Z,8.50
2019-03-05T18:45:11.200Z,8.30
2019-03-05T18:51:13.619Z,8.10
2019-03-05T18:57:15.967Z,7.90
2019-03-05T19:03:18.242Z,7.90
2019-03-05T19:09:20.724Z,7.70
2019-03-05T19:15:23.110Z,7.60
2019-03-05T19:21:26.478Z,7.50
2019-03-05T19:27:28.880Z,7.80
2019-03-05T19:33:31.068Z,7.60
2019-03-05T19:39:36.521Z,7.50
2019-03-05T19:45:38.809Z,7.30
2019-03-05T19:51:43.055Z,7.10
2019-03-05T19:57:45.238Z,6.90
2019-03-05T20:03:47.583Z,6.80
2019-03-05T20:09:51.438Z,6.70
2019-03-05T20:15:54.657Z,6.70
2019-03-05T20:21:56.940Z,6.60
2019-03-05T20:28:01.328Z,6.70
2019-03-05T20:34:14.742Z,6.60
2019-03-05T20:40:17.674Z,6.60
2019-03-05T20:46:25.436Z,6.60
2019-03-05T20:52:27.901Z,6.60
2019-03-05T20:58:32.331Z,6.60
2019-03-05T21:04:35.517Z,6.70
2019-03-05T21:10:37.947Z,6.70
2019-03-05T21:16:40.503Z,6.70
2019-03-05T21:22:44.232Z,6.70
2019-03-05T21:28:47.456Z,6.60
2019-03-05T21:34:51.462Z,6.60
2019-03-05T21:40:53.702Z,6.60
2019-03-05T21:46:56.027Z,6.80
2019-03-05T21:52:58.490Z,6.70
2019-03-05T21:59:02.798Z,6.70
2019-03-05T22:05:05.608Z,6.70
2019-03-05T22:11:07.860Z,6.70
2019-03-05T22:17:10.192Z,6.80
2019-03-05T22:23:12.328Z,6.90
2019-03-05T22:29:14.607Z,6.90
2019-03-05T22:35:17.395Z,6.80
2019-03-05T22:41:20.691Z,6.80
2019-03-05T22:47:24.020Z,6.70
2019-03-05T22:53:26.198Z,6.80
2019-03-05T22:59:28.321Z,6.70
2019-03-05T23:05:34.536Z,6.60
2019-03-05T23:11:37.023Z,6.60
2019-03-05T23:17:43.276Z,6.80
2019-03-05T23:23:45.420Z,6.90
2019-03-05T23:29:47.784Z,6.80
2019-03-05T23:35:50.123Z,6.80
2019-03-05T23:41:52.386Z,6.80
2019-03-05T23:47:54.843Z,6.90
2019-03-05T23:53:57.055Z,6.90
2019-03-05T23:59:59.212Z,6.90
